Concrete, WA (98237)

10:26 PM PDT on August 03, 2015 (GMT -0700)
RAWS | | Change Station
CLOSE
Current Station
Personal Weather Station
Location: Concrete, WA
Elevation: 2160 ft
Nearby Weather Stations

Elev 2160 ft 48.39 °N, 121.82 °W | Updated 58 minutes ago

Partly Cloudy
Partly Cloudy
61.0 °F
Feels Like 61.0 °F
N
1.0
Wind Variable Wind from SSE
Gusts 5.0 mph

Today
High -- | Low -- °F
--% Chance of Precip.
Yesterday
High -- | Low -- °F
Precip. -- in
5:43 AM 8:41 PM
Waning Gibbous, 81% visible
Pressure 29.93 in
Visibility 10.0 miles
Clouds Clear
Dew Point 52.0 °F
Humidity 72%
Rainfall in
Snow Depth Not available.
UV 0 out of 12
Pollen 4.70 out of 12
Air Quality Not available.
Flu Activity Not available.
METAR KBVS 040515Z AUTO 15003KT 10SM CLR 15/12 A2993 RMK A01

More Conditions Fewer Conditions

Pressure 29.93 in
Visibility 10.0 miles
Clouds Clear
Dew Point 52.0 °F
Humidity 72%
Rainfall in
Snow Depth Not available.
UV 0 out of 12
Pollen 4.70 out of 12
Air Quality Not available.
Flu Activity Not available.
METAR KBVS 040515Z AUTO 15003KT 10SM CLR 15/12 A2993 RMK A01

More Conditions Fewer Conditions

10-Day Weather Forecast

×

Almanac

Astronomy

Aug. 03, 2015 Rise Set
Actual Time
Civil Twilight
Nautical Twilight
Astronomical Twilight
Moon
Length of Visible Light
Length of Day
Tomorrow will be .
, % of the Moon is Illuminated

Today's Extremes

State Highs State Lows

Community

WunderPhotos

Upload Photos

1,843,868 photos uploaded!

WunderBlogs® & News

Nearby

Air Quality

  Air Quality AQ Index Pollutant
Not available.

Snow Depth

Station Depth Elevation

Earthquake Activity

City Distance Mag. Time & Date
Minimum magnitude displayed is 2.5.

Coastal Water Temperatures

Place Temperature

Stations

Nearby Weather Stations

Station Location Temp. Windchill Dew Point Humidity Wind Precip. Elev Updated Type